sensor_id;sensor_type;location;lat;lon;timestamp;pressure;altitude;pressure_sealevel;temperature;humidity
70437;BME280;57877;39.750;-104.894;2023-05-21T00:00:50;84183.28;;;21.95;23.68
70437;BME280;57877;39.750;-104.894;2023-05-21T00:03:16;84183.34;;;21.87;23.31
70437;BME280;57877;39.750;-104.894;2023-05-21T00:05:43;84181.38;;;21.73;22.89
70437;BME280;57877;39.750;-104.894;2023-05-21T00:08:08;84177.07;;;22.83;22.10
70437;BME280;57877;39.750;-104.894;2023-05-21T00:10:34;84174.25;;;22.33;21.76
70437;BME280;57877;39.750;-104.894;2023-05-21T00:13:00;84174.74;;;21.74;22.32
70437;BME280;57877;39.750;-104.894;2023-05-21T00:15:26;84172.29;;;22.59;22.74
70437;BME280;57877;39.750;-104.894;2023-05-21T00:17:52;84176.99;;;20.51;23.91
70437;BME280;57877;39.750;-104.894;2023-05-21T00:20:18;84174.81;;;21.56;23.15
70437;BME280;57877;39.750;-104.894;2023-05-21T00:22:44;84170.53;;;21.82;22.58
70437;BME280;57877;39.750;-104.894;2023-05-21T00:25:11;84167.88;;;19.63;24.58
70437;BME280;57877;39.750;-104.894;2023-05-21T00:27:37;84166.11;;;19.86;24.69
70437;BME280;57877;39.750;-104.894;2023-05-21T00:30:02;84164.73;;;18.83;25.92
70437;BME280;57877;39.750;-104.894;2023-05-21T00:32:28;84166.79;;;20.18;25.28
70437;BME280;57877;39.750;-104.894;2023-05-21T00:34:54;84167.49;;;20.09;25.69
70437;BME280;57877;39.750;-104.894;2023-05-21T00:37:20;84170.13;;;18.48;27.99
70437;BME280;57877;39.750;-104.894;2023-05-21T00:39:46;84171.86;;;18.90;28.65
70437;BME280;57877;39.750;-104.894;2023-05-21T00:44:38;84177.70;;;19.25;27.39
70437;BME280;57877;39.750;-104.894;2023-05-21T00:47:05;84180.53;;;19.34;27.20
70437;BME280;57877;39.750;-104.894;2023-05-21T00:49:31;84184.95;;;19.46;27.30
70437;BME280;57877;39.750;-104.894;2023-05-21T00:51:56;84185.42;;;19.01;27.09
70437;BME280;57877;39.750;-104.894;2023-05-21T00:54:23;84182.53;;;18.36;27.64
70437;BME280;57877;39.750;-104.894;2023-05-21T00:56:48;84183.93;;;18.37;28.29
70437;BME280;57877;39.750;-104.894;2023-05-21T00:59:15;84185.81;;;19.34;27.33
70437;BME280;57877;39.750;-104.894;2023-05-21T01:01:40;84185.54;;;19.96;26.24
70437;BME280;57877;39.750;-104.894;2023-05-21T01:04:06;84184.72;;;20.04;25.87
70437;BME280;57877;39.750;-104.894;2023-05-21T01:06:32;84186.21;;;20.80;25.16
70437;BME280;57877;39.750;-104.894;2023-05-21T01:08:58;84179.81;;;20.07;25.02
70437;BME280;57877;39.750;-104.894;2023-05-21T01:11:29;84175.95;;;20.49;24.96
70437;BME280;57877;39.750;-104.894;2023-05-21T01:13:50;84175.14;;;20.46;24.45
70437;BME280;57877;39.750;-104.894;2023-05-21T01:16:16;84175.97;;;20.66;24.03
70437;BME280;57877;39.750;-104.894;2023-05-21T01:18:42;84179.72;;;20.76;23.99
70437;BME280;57877;39.750;-104.894;2023-05-21T01:21:09;84176.10;;;21.01;23.85
70437;BME280;57877;39.750;-104.894;2023-05-21T01:23:34;84176.55;;;21.26;24.01
70437;BME280;57877;39.750;-104.894;2023-05-21T01:26:00;84172.92;;;21.18;23.78
70437;BME280;57877;39.750;-104.894;2023-05-21T01:28:26;84169.72;;;21.13;23.56
70437;BME280;57877;39.750;-104.894;2023-05-21T01:30:52;84169.07;;;21.12;23.70
70437;BME280;57877;39.750;-104.894;2023-05-21T01:33:21;84169.56;;;21.13;23.72
70437;BME280;57877;39.750;-104.894;2023-05-21T01:35:49;84170.93;;;21.01;23.83
70437;BME280;57877;39.750;-104.894;2023-05-21T01:38:14;84173.01;;;21.08;23.73
70437;BME280;57877;39.750;-104.894;2023-05-21T01:40:38;84175.62;;;21.03;23.79
70437;BME280;57877;39.750;-104.894;2023-05-21T01:43:01;84175.68;;;21.00;24.28
70437;BME280;57877;39.750;-104.894;2023-05-21T01:45:27;84177.82;;;20.78;24.54
70437;BME280;57877;39.750;-104.894;2023-05-21T01:47:53;84179.41;;;21.23;24.52
70437;BME280;57877;39.750;-104.894;2023-05-21T01:50:18;84185.28;;;21.02;24.78
70437;BME280;57877;39.750;-104.894;2023-05-21T01:52:49;84184.69;;;21.28;25.37
70437;BME280;57877;39.750;-104.894;2023-05-21T01:55:10;84187.99;;;20.95;25.45
70437;BME280;57877;39.750;-104.894;2023-05-21T01:57:36;84186.56;;;20.71;24.98
70437;BME280;57877;39.750;-104.894;2023-05-21T02:00:03;84187.45;;;20.68;25.66
70437;BME280;57877;39.750;-104.894;2023-05-21T02:02:28;84184.42;;;20.50;25.80
70437;BME280;57877;39.750;-104.894;2023-05-21T02:04:54;84182.06;;;20.48;25.80
70437;BME280;57877;39.750;-104.894;2023-05-21T02:07:20;84181.59;;;20.11;26.04
70437;BME280;57877;39.750;-104.894;2023-05-21T02:09:46;84178.70;;;20.19;26.31
70437;BME280;57877;39.750;-104.894;2023-05-21T02:12:12;84179.53;;;19.66;26.48
70437;BME280;57877;39.750;-104.894;2023-05-21T02:14:38;84181.84;;;19.56;26.70
70437;BME280;57877;39.750;-104.894;2023-05-21T02:17:04;84184.07;;;19.16;26.49
70437;BME280;57877;39.750;-104.894;2023-05-21T02:19:30;84181.75;;;19.21;26.88
70437;BME280;57877;39.750;-104.894;2023-05-21T02:21:55;84186.66;;;19.79;26.69
70437;BME280;57877;39.750;-104.894;2023-05-21T02:24:21;84189.06;;;19.74;26.66
70437;BME280;57877;39.750;-104.894;2023-05-21T02:26:47;84192.08;;;19.77;26.51
70437;BME280;57877;39.750;-104.894;2023-05-21T02:29:12;84194.24;;;19.47;26.96
70437;BME280;57877;39.750;-104.894;2023-05-21T02:31:37;84197.40;;;19.09;27.51
70437;BME280;57877;39.750;-104.894;2023-05-21T02:34:03;84192.13;;;19.04;27.74
70437;BME280;57877;39.750;-104.894;2023-05-21T02:36:27;84194.81;;;18.90;28.10
70437;BME280;57877;39.750;-104.894;2023-05-21T02:38:52;84192.99;;;18.71;28.28
70437;BME280;57877;39.750;-104.894;2023-05-21T02:41:17;84195.17;;;18.57;28.56
70437;BME280;57877;39.750;-104.894;2023-05-21T02:43:42;84189.73;;;18.61;28.84
70437;BME280;57877;39.750;-104.894;2023-05-21T02:46:08;84190.38;;;18.27;29.13
70437;BME280;57877;39.750;-104.894;2023-05-21T02:48:32;84188.54;;;18.49;29.01
70437;BME280;57877;39.750;-104.894;2023-05-21T02:51:00;84193.39;;;18.14;29.14
70437;BME280;57877;39.750;-104.894;2023-05-21T02:53:24;84193.07;;;18.30;29.11
70437;BME280;57877;39.750;-104.894;2023-05-21T02:55:50;84194.59;;;17.68;29.36
70437;BME280;57877;39.750;-104.894;2023-05-21T02:58:17;84196.08;;;18.12;29.21
70437;BME280;57877;39.750;-104.894;2023-05-21T03:00:43;84195.36;;;17.79;29.19
70437;BME280;57877;39.750;-104.894;2023-05-21T03:03:06;84195.68;;;18.04;29.19
70437;BME280;57877;39.750;-104.894;2023-05-21T03:05:31;84193.12;;;17.95;29.17
70437;BME280;57877;39.750;-104.894;2023-05-21T03:07:59;84195.46;;;17.63;29.42
70437;BME280;57877;39.750;-104.894;2023-05-21T03:10:23;84199.33;;;18.24;29.18
70437;BME280;57877;39.750;-104.894;2023-05-21T03:12:48;84201.27;;;18.16;29.07
70437;BME280;57877;39.750;-104.894;2023-05-21T03:15:13;84202.32;;;18.25;29.07
70437;BME280;57877;39.750;-104.894;2023-05-21T03:17:38;84202.08;;;17.98;29.30
70437;BME280;57877;39.750;-104.894;2023-05-21T03:20:04;84200.40;;;18.02;29.27
70437;BME280;57877;39.750;-104.894;2023-05-21T03:22:28;84199.22;;;18.19;29.50
70437;BME280;57877;39.750;-104.894;2023-05-21T03:24:53;84201.86;;;18.03;29.77
70437;BME280;57877;39.750;-104.894;2023-05-21T03:27:18;84201.26;;;17.95;30.06
70437;BME280;57877;39.750;-104.894;2023-05-21T03:29:44;84199.72;;;17.69;30.52
70437;BME280;57877;39.750;-104.894;2023-05-21T03:32:09;84201.36;;;17.82;30.64
70437;BME280;57877;39.750;-104.894;2023-05-21T03:34:35;84205.61;;;17.78;30.94
70437;BME280;57877;39.750;-104.894;2023-05-21T03:37:00;84206.14;;;17.53;31.35
70437;BME280;57877;39.750;-104.894;2023-05-21T03:39:24;84207.94;;;17.18;31.55
70437;BME280;57877;39.750;-104.894;2023-05-21T03:41:49;84208.27;;;17.73;31.24
70437;BME280;57877;39.750;-104.894;2023-05-21T03:44:14;84206.59;;;17.79;31.27
70437;BME280;57877;39.750;-104.894;2023-05-21T03:46:39;84208.19;;;17.80;31.52
70437;BME280;57877;39.750;-104.894;2023-05-21T03:49:05;84209.70;;;17.63;31.65
70437;BME280;57877;39.750;-104.894;2023-05-21T03:51:29;84210.52;;;17.56;31.86
70437;BME280;57877;39.750;-104.894;2023-05-21T03:53:55;84207.37;;;17.48;31.93
70437;BME280;57877;39.750;-104.894;2023-05-21T03:56:19;84205.88;;;17.24;32.41
70437;BME280;57877;39.750;-104.894;2023-05-21T03:58:45;84203.16;;;16.93;33.03
70437;BME280;57877;39.750;-104.894;2023-05-21T04:01:10;84203.18;;;16.76;33.43
70437;BME280;57877;39.750;-104.894;2023-05-21T04:03:34;84204.10;;;16.68;33.63
70437;BME280;57877;39.750;-104.894;2023-05-21T04:06:00;84207.18;;;16.33;34.04
70437;BME280;57877;39.750;-104.894;2023-05-21T04:08:25;84207.17;;;17.13;33.53
70437;BME280;57877;39.750;-104.894;2023-05-21T04:10:49;84210.82;;;16.81;33.55
70437;BME280;57877;39.750;-104.894;2023-05-21T04:13:14;84208.92;;;16.47;33.55
70437;BME280;57877;39.750;-104.894;2023-05-21T04:15:40;84208.66;;;16.66;33.32
70437;BME280;57877;39.750;-104.894;2023-05-21T04:18:05;84206.90;;;16.79;33.16
70437;BME280;57877;39.750;-104.894;2023-05-21T04:20:30;84203.92;;;16.58;33.11
70437;BME280;57877;39.750;-104.894;2023-05-21T04:22:56;84203.35;;;16.57;33.01
70437;BME280;57877;39.750;-104.894;2023-05-21T04:25:22;84203.28;;;16.62;32.83
70437;BME280;57877;39.750;-104.894;2023-05-21T04:27:47;84203.57;;;16.23;32.95
70437;BME280;57877;39.750;-104.894;2023-05-21T04:30:12;84202.80;;;16.31;32.93
70437;BME280;57877;39.750;-104.894;2023-05-21T04:32:37;84203.12;;;16.69;32.72
70437;BME280;57877;39.750;-104.894;2023-05-21T04:35:03;84203.41;;;16.80;32.93
70437;BME280;57877;39.750;-104.894;2023-05-21T04:37:28;84199.78;;;16.24;33.32
70437;BME280;57877;39.750;-104.894;2023-05-21T04:39:54;84201.57;;;16.68;32.83
70437;BME280;57877;39.750;-104.894;2023-05-21T04:42:21;84199.02;;;16.61;32.85
70437;BME280;57877;39.750;-104.894;2023-05-21T04:44:46;84197.31;;;16.47;33.00
70437;BME280;57877;39.750;-104.894;2023-05-21T04:47:12;84195.54;;;16.41;33.08
70437;BME280;57877;39.750;-104.894;2023-05-21T04:49:38;84195.97;;;16.48;32.91
70437;BME280;57877;39.750;-104.894;2023-05-21T04:52:04;84194.03;;;16.38;33.05
70437;BME280;57877;39.750;-104.894;2023-05-21T04:54:31;84194.03;;;16.23;33.27
70437;BME280;57877;39.750;-104.894;2023-05-21T04:56:56;84190.87;;;16.58;33.06
70437;BME280;57877;39.750;-104.894;2023-05-21T04:59:22;84191.19;;;16.28;33.09
70437;BME280;57877;39.750;-104.894;2023-05-21T05:01:48;84192.61;;;16.01;33.36
70437;BME280;57877;39.750;-104.894;2023-05-21T05:04:13;84192.88;;;16.23;33.02
70437;BME280;57877;39.750;-104.894;2023-05-21T05:06:38;84191.74;;;16.08;33.25
70437;BME280;57877;39.750;-104.894;2023-05-21T05:09:03;84191.48;;;15.60;33.72
70437;BME280;57877;39.750;-104.894;2023-05-21T05:11:28;84191.71;;;15.67;33.70
70437;BME280;57877;39.750;-104.894;2023-05-21T05:13:53;84188.45;;;15.82;33.73
70437;BME280;57877;39.750;-104.894;2023-05-21T05:16:19;84183.41;;;15.49;33.76
70437;BME280;57877;39.750;-104.894;2023-05-21T05:18:44;84183.59;;;15.79;33.77
70437;BME280;57877;39.750;-104.894;2023-05-21T05:21:10;84183.10;;;15.91;33.61
70437;BME280;57877;39.750;-104.894;2023-05-21T05:23:36;84183.38;;;15.62;33.45
70437;BME280;57877;39.750;-104.894;2023-05-21T05:26:02;84183.53;;;15.76;33.49
70437;BME280;57877;39.750;-104.894;2023-05-21T05:28:28;84188.27;;;15.58;33.50
70437;BME280;57877;39.750;-104.894;2023-05-21T05:30:54;84192.68;;;15.83;33.48
70437;BME280;57877;39.750;-104.894;2023-05-21T05:33:19;84192.35;;;15.23;34.28
70437;BME280;57877;39.750;-104.894;2023-05-21T05:35:45;84193.93;;;15.49;33.45
70437;BME280;57877;39.750;-104.894;2023-05-21T05:38:11;84194.26;;;15.71;33.42
70437;BME280;57877;39.750;-104.894;2023-05-21T05:40:37;84194.39;;;15.35;33.52
70437;BME280;57877;39.750;-104.894;2023-05-21T05:43:03;84192.34;;;15.38;33.69
70437;BME280;57877;39.750;-104.894;2023-05-21T05:45:29;84192.05;;;15.22;33.90
70437;BME280;57877;39.750;-104.894;2023-05-21T05:47:55;84188.92;;;15.21;33.86
70437;BME280;57877;39.750;-104.894;2023-05-21T05:50:21;84186.45;;;15.16;34.04
70437;BME280;57877;39.750;-104.894;2023-05-21T05:52:47;84184.09;;;15.18;34.06
70437;BME280;57877;39.750;-104.894;2023-05-21T05:55:14;84181.90;;;15.51;33.52
70437;BME280;57877;39.750;-104.894;2023-05-21T05:57:39;84179.79;;;15.28;33.87
70437;BME280;57877;39.750;-104.894;2023-05-21T06:00:06;84179.28;;;15.26;33.59
70437;BME280;57877;39.750;-104.894;2023-05-21T06:02:31;84178.25;;;15.45;33.66
70437;BME280;57877;39.750;-104.894;2023-05-21T06:04:57;84174.89;;;15.19;33.53
70437;BME280;57877;39.750;-104.894;2023-05-21T06:07:21;84172.52;;;15.23;33.64
70437;BME280;57877;39.750;-104.894;2023-05-21T06:09:46;84168.50;;;14.67;33.98
70437;BME280;57877;39.750;-104.894;2023-05-21T06:12:13;84169.57;;;14.69;34.30
70437;BME280;57877;39.750;-104.894;2023-05-21T06:14:38;84167.74;;;14.63;34.40
70437;BME280;57877;39.750;-104.894;2023-05-21T06:17:04;84167.02;;;14.08;35.04
70437;BME280;57877;39.750;-104.894;2023-05-21T06:19:31;84170.64;;;14.71;34.34
70437;BME280;57877;39.750;-104.894;2023-05-21T06:21:56;84171.73;;;14.84;34.23
70437;BME280;57877;39.750;-104.894;2023-05-21T06:24:22;84173.22;;;14.54;34.61
70437;BME280;57877;39.750;-104.894;2023-05-21T06:26:48;84173.85;;;14.83;34.21
70437;BME280;57877;39.750;-104.894;2023-05-21T06:29:14;84173.19;;;14.49;34.67
70437;BME280;57877;39.750;-104.894;2023-05-21T06:31:39;84169.18;;;14.65;34.47
70437;BME280;57877;39.750;-104.894;2023-05-21T06:34:05;84167.51;;;14.46;34.49
70437;BME280;57877;39.750;-104.894;2023-05-21T06:36:30;84165.76;;;14.65;34.74
70437;BME280;57877;39.750;-104.894;2023-05-21T06:38:55;84166.02;;;14.17;34.94
70437;BME280;57877;39.750;-104.894;2023-05-21T06:41:20;84163.43;;;14.71;34.80
70437;BME280;57877;39.750;-104.894;2023-05-21T06:43:44;84161.10;;;14.50;34.68
70437;BME280;57877;39.750;-104.894;2023-05-21T06:46:10;84157.66;;;14.25;34.71
70437;BME280;57877;39.750;-104.894;2023-05-21T06:48:35;84158.79;;;14.86;34.60
70437;BME280;57877;39.750;-104.894;2023-05-21T06:51:01;84157.64;;;14.42;35.18
70437;BME280;57877;39.750;-104.894;2023-05-21T06:53:27;84158.26;;;14.54;34.98
70437;BME280;57877;39.750;-104.894;2023-05-21T06:55:53;84160.50;;;14.16;35.26
70437;BME280;57877;39.750;-104.894;2023-05-21T06:58:19;84154.90;;;14.07;35.58
70437;BME280;57877;39.750;-104.894;2023-05-21T07:00:46;84153.01;;;14.53;35.05
70437;BME280;57877;39.750;-104.894;2023-05-21T07:03:11;84154.62;;;14.45;35.29
70437;BME280;57877;39.750;-104.894;2023-05-21T07:05:37;84155.36;;;14.46;35.31
70437;BME280;57877;39.750;-104.894;2023-05-21T07:08:03;84156.01;;;14.30;35.40
70437;BME280;57877;39.750;-104.894;2023-05-21T07:10:29;84156.30;;;14.25;35.40
70437;BME280;57877;39.750;-104.894;2023-05-21T07:12:54;84151.89;;;14.28;35.58
70437;BME280;57877;39.750;-104.894;2023-05-21T07:15:20;84153.01;;;14.15;35.69
70437;BME280;57877;39.750;-104.894;2023-05-21T07:17:46;84148.98;;;14.13;35.89
70437;BME280;57877;39.750;-104.894;2023-05-21T07:20:12;84148.68;;;14.01;36.07
70437;BME280;57877;39.750;-104.894;2023-05-21T07:22:38;84147.16;;;13.88;36.31
70437;BME280;57877;39.750;-104.894;2023-05-21T07:25:03;84145.97;;;13.79;36.82
70437;BME280;57877;39.750;-104.894;2023-05-21T07:27:29;84145.72;;;13.66;36.83
70437;BME280;57877;39.750;-104.894;2023-05-21T07:29:55;84143.27;;;13.60;36.90
70437;BME280;57877;39.750;-104.894;2023-05-21T07:32:21;84142.76;;;13.19;37.64
70437;BME280;57877;39.750;-104.894;2023-05-21T07:34:48;84142.35;;;13.27;37.55
70437;BME280;57877;39.750;-104.894;2023-05-21T07:37:12;84142.53;;;13.24;37.81
70437;BME280;57877;39.750;-104.894;2023-05-21T07:39:37;84141.12;;;13.26;38.17
70437;BME280;57877;39.750;-104.894;2023-05-21T07:42:02;84136.95;;;13.59;37.67
70437;BME280;57877;39.750;-104.894;2023-05-21T07:44:27;84136.62;;;13.23;37.66
70437;BME280;57877;39.750;-104.894;2023-05-21T07:46:52;84135.97;;;13.27;37.60
70437;BME280;57877;39.750;-104.894;2023-05-21T07:49:18;84137.26;;;12.99;37.67
70437;BME280;57877;39.750;-104.894;2023-05-21T07:51:43;84138.65;;;13.48;37.51
70437;BME280;57877;39.750;-104.894;2023-05-21T07:54:08;84140.97;;;13.18;37.66
70437;BME280;57877;39.750;-104.894;2023-05-21T07:56:33;84137.97;;;13.10;37.45
70437;BME280;57877;39.750;-104.894;2023-05-21T07:58:58;84139.84;;;13.32;37.18
70437;BME280;57877;39.750;-104.894;2023-05-21T08:01:23;84139.82;;;13.40;36.99
70437;BME280;57877;39.750;-104.894;2023-05-21T08:03:49;84144.33;;;13.31;37.13
70437;BME280;57877;39.750;-104.894;2023-05-21T08:06:15;84142.42;;;13.22;37.32
70437;BME280;57877;39.750;-104.894;2023-05-21T08:08:41;84142.52;;;12.98;37.31
70437;BME280;57877;39.750;-104.894;2023-05-21T08:11:05;84140.54;;;13.38;37.12
70437;BME280;57877;39.750;-104.894;2023-05-21T08:13:30;84138.08;;;13.49;37.06
70437;BME280;57877;39.750;-104.894;2023-05-21T08:15:55;84138.25;;;13.37;37.00
70437;BME280;57877;39.750;-104.894;2023-05-21T08:18:21;84139.12;;;13.38;36.85
70437;BME280;57877;39.750;-104.894;2023-05-21T08:20:48;84141.90;;;13.31;37.03
70437;BME280;57877;39.750;-104.894;2023-05-21T08:23:12;84143.93;;;13.23;37.08
70437;BME280;57877;39.750;-104.894;2023-05-21T08:25:37;84143.90;;;12.97;37.19
70437;BME280;57877;39.750;-104.894;2023-05-21T08:28:03;84140.56;;;12.92;37.68
70437;BME280;57877;39.750;-104.894;2023-05-21T08:30:28;84137.93;;;13.27;37.20
70437;BME280;57877;39.750;-104.894;2023-05-21T08:32:53;84135.18;;;13.43;37.43
70437;BME280;57877;39.750;-104.894;2023-05-21T08:35:18;84137.39;;;13.01;37.66
70437;BME280;57877;39.750;-104.894;2023-05-21T08:37:44;84134.91;;;12.87;37.92
70437;BME280;57877;39.750;-104.894;2023-05-21T08:40:10;84133.56;;;12.88;38.49
70437;BME280;57877;39.750;-104.894;2023-05-21T08:42:41;84132.75;;;12.61;39.06
70437;BME280;57877;39.750;-104.894;2023-05-21T08:45:00;84132.20;;;12.88;38.96
70437;BME280;57877;39.750;-104.894;2023-05-21T08:47:26;84130.25;;;12.66;39.05
70437;BME280;57877;39.750;-104.894;2023-05-21T08:49:50;84127.20;;;12.24;39.76
70437;BME280;57877;39.750;-104.894;2023-05-21T08:52:15;84124.45;;;12.62;39.08
70437;BME280;57877;39.750;-104.894;2023-05-21T08:54:41;84125.90;;;12.61;39.14
70437;BME280;57877;39.750;-104.894;2023-05-21T08:57:07;84125.96;;;12.18;39.78
70437;BME280;57877;39.750;-104.894;2023-05-21T08:59:32;84124.39;;;12.52;39.22
70437;BME280;57877;39.750;-104.894;2023-05-21T09:01:58;84123.13;;;12.83;38.91
70437;BME280;57877;39.750;-104.894;2023-05-21T09:04:24;84120.83;;;12.97;38.63
70437;BME280;57877;39.750;-104.894;2023-05-21T09:06:51;84118.77;;;12.94;38.59
70437;BME280;57877;39.750;-104.894;2023-05-21T09:09:20;84115.36;;;12.57;38.98
70437;BME280;57877;39.750;-104.894;2023-05-21T09:11:40;84113.94;;;12.90;38.54
70437;BME280;57877;39.750;-104.894;2023-05-21T09:14:05;84112.66;;;12.92;38.60
70437;BME280;57877;39.750;-104.894;2023-05-21T09:16:30;84112.43;;;12.93;38.51
70437;BME280;57877;39.750;-104.894;2023-05-21T09:18:55;84112.84;;;12.89;38.36
70437;BME280;57877;39.750;-104.894;2023-05-21T09:21:25;84111.30;;;13.06;38.12
70437;BME280;57877;39.750;-104.894;2023-05-21T09:23:45;84110.60;;;12.33;38.27
70437;BME280;57877;39.750;-104.894;2023-05-21T09:26:12;84109.93;;;12.70;38.21
70437;BME280;57877;39.750;-104.894;2023-05-21T09:28:35;84109.87;;;12.80;38.16
70437;BME280;57877;39.750;-104.894;2023-05-21T09:31:03;84109.71;;;12.81;37.99
70437;BME280;57877;39.750;-104.894;2023-05-21T09:33:26;84112.44;;;12.74;38.05
70437;BME280;57877;39.750;-104.894;2023-05-21T09:35:55;84109.42;;;12.63;38.42
70437;BME280;57877;39.750;-104.894;2023-05-21T09:38:16;84110.90;;;12.39;38.47
70437;BME280;57877;39.750;-104.894;2023-05-21T09:40:44;84111.29;;;12.41;38.55
70437;BME280;57877;39.750;-104.894;2023-05-21T09:43:05;84109.36;;;12.42;38.46
70437;BME280;57877;39.750;-104.894;2023-05-21T09:45:30;84109.24;;;12.50;38.33
70437;BME280;57877;39.750;-104.894;2023-05-21T09:47:56;84108.63;;;12.46;38.31
70437;BME280;57877;39.750;-104.894;2023-05-21T09:50:23;84108.19;;;12.85;38.19
70437;BME280;57877;39.750;-104.894;2023-05-21T09:52:47;84108.64;;;12.51;38.25
70437;BME280;57877;39.750;-104.894;2023-05-21T09:55:12;84110.89;;;12.68;37.79
70437;BME280;57877;39.750;-104.894;2023-05-21T09:57:40;84112.68;;;12.19;38.57
70437;BME280;57877;39.750;-104.894;2023-05-21T10:00:02;84110.52;;;12.26;38.58
70437;BME280;57877;39.750;-104.894;2023-05-21T10:02:29;84112.61;;;12.17;38.82
70437;BME280;57877;39.750;-104.894;2023-05-21T10:04:52;84111.80;;;11.81;39.31
70437;BME280;57877;39.750;-104.894;2023-05-21T10:07:18;84114.64;;;12.51;39.08
70437;BME280;57877;39.750;-104.894;2023-05-21T10:09:42;84116.95;;;12.28;38.75
70437;BME280;57877;39.750;-104.894;2023-05-21T10:12:07;84119.34;;;12.14;39.17
70437;BME280;57877;39.750;-104.894;2023-05-21T10:14:32;84120.05;;;12.09;39.40
70437;BME280;57877;39.750;-104.894;2023-05-21T10:16:57;84119.81;;;12.31;39.36
70437;BME280;57877;39.750;-104.894;2023-05-21T10:19:23;84120.21;;;11.81;39.65
70437;BME280;57877;39.750;-104.894;2023-05-21T10:21:47;84118.98;;;11.96;39.64
70437;BME280;57877;39.750;-104.894;2023-05-21T10:24:12;84117.51;;;11.74;40.26
70437;BME280;57877;39.750;-104.894;2023-05-21T10:26:38;84118.26;;;12.24;39.27
70437;BME280;57877;39.750;-104.894;2023-05-21T10:29:02;84118.72;;;12.08;39.40
70437;BME280;57877;39.750;-104.894;2023-05-21T10:31:27;84122.07;;;12.07;39.45
70437;BME280;57877;39.750;-104.894;2023-05-21T10:33:53;84123.49;;;12.27;39.19
70437;BME280;57877;39.750;-104.894;2023-05-21T10:36:17;84124.01;;;12.23;39.06
70437;BME280;57877;39.750;-104.894;2023-05-21T10:38:43;84125.97;;;12.41;38.89
70437;BME280;57877;39.750;-104.894;2023-05-21T10:41:09;84124.42;;;12.22;38.72
70437;BME280;57877;39.750;-104.894;2023-05-21T10:43:44;84121.36;;;12.50;38.58
70437;BME280;57877;39.750;-104.894;2023-05-21T10:46:13;84119.06;;;11.88;38.74
70437;BME280;57877;39.750;-104.894;2023-05-21T10:48:34;84116.80;;;11.94;38.90
70437;BME280;57877;39.750;-104.894;2023-05-21T10:50:59;84116.64;;;11.91;38.99
70437;BME280;57877;39.750;-104.894;2023-05-21T10:53:20;84114.87;;;12.14;38.96
70437;BME280;57877;39.750;-104.894;2023-05-21T10:55:48;84112.57;;;11.74;38.80
70437;BME280;57877;39.750;-104.894;2023-05-21T11:00:29;84108.49;;;11.70;39.16
70437;BME280;57877;39.750;-104.894;2023-05-21T11:02:53;84111.33;;;11.86;38.72
70437;BME280;57877;39.750;-104.894;2023-05-21T11:07:51;84116.96;;;11.77;38.97
70437;BME280;57877;39.750;-104.894;2023-05-21T11:12:34;84117.65;;;12.20;38.51
70437;BME280;57877;39.750;-104.894;2023-05-21T11:14:59;84114.98;;;11.93;38.36
70437;BME280;57877;39.750;-104.894;2023-05-21T11:19:50;84115.55;;;11.90;38.87
70437;BME280;57877;39.750;-104.894;2023-05-21T11:22:20;84114.16;;;11.28;39.00
70437;BME280;57877;39.750;-104.894;2023-05-21T11:24:40;84118.68;;;11.92;38.47
70437;BME280;57877;39.750;-104.894;2023-05-21T11:27:04;84119.02;;;12.02;38.44
70437;BME280;57877;39.750;-104.894;2023-05-21T11:29:40;84118.03;;;12.24;38.26
70437;BME280;57877;39.750;-104.894;2023-05-21T11:31:59;84117.05;;;12.10;38.33
70437;BME280;57877;39.750;-104.894;2023-05-21T11:34:21;84121.66;;;12.18;37.90
70437;BME280;57877;39.750;-104.894;2023-05-21T11:36:46;84122.12;;;11.84;38.04
70437;BME280;57877;39.750;-104.894;2023-05-21T11:39:12;84122.02;;;12.26;37.89
70437;BME280;57877;39.750;-104.894;2023-05-21T11:44:01;84120.07;;;11.71;38.12
70437;BME280;57877;39.750;-104.894;2023-05-21T11:46:26;84117.69;;;11.72;38.02
70437;BME280;57877;39.750;-104.894;2023-05-21T11:48:52;84118.35;;;11.90;38.48
70437;BME280;57877;39.750;-104.894;2023-05-21T11:51:16;84120.20;;;11.97;38.01
70437;BME280;57877;39.750;-104.894;2023-05-21T11:53:41;84122.43;;;12.30;37.91
70437;BME280;57877;39.750;-104.894;2023-05-21T11:56:07;84120.79;;;12.01;38.33
70437;BME280;57877;39.750;-104.894;2023-05-21T11:58:32;84121.39;;;11.95;38.18
70437;BME280;57877;39.750;-104.894;2023-05-21T12:00:57;84121.75;;;11.78;38.42
70437;BME280;57877;39.750;-104.894;2023-05-21T12:03:22;84119.04;;;11.65;38.63
70437;BME280;57877;39.750;-104.894;2023-05-21T12:05:50;84118.05;;;12.06;38.36
70437;BME280;57877;39.750;-104.894;2023-05-21T12:08:13;84117.41;;;11.51;39.08
70437;BME280;57877;39.750;-104.894;2023-05-21T12:10:37;84117.13;;;11.60;39.06
70437;BME280;57877;39.750;-104.894;2023-05-21T12:13:02;84116.19;;;11.53;39.06
70437;BME280;57877;39.750;-104.894;2023-05-21T12:15:28;84119.08;;;11.72;39.38
70437;BME280;57877;39.750;-104.894;2023-05-21T12:17:54;84119.19;;;11.50;39.15
70437;BME280;57877;39.750;-104.894;2023-05-21T12:20:18;84120.64;;;11.38;39.88
70437;BME280;57877;39.750;-104.894;2023-05-21T12:22:47;84120.11;;;11.53;39.37
70437;BME280;57877;39.750;-104.894;2023-05-21T12:25:08;84125.70;;;11.67;39.49
70437;BME280;57877;39.750;-104.894;2023-05-21T12:27:33;84130.40;;;11.69;38.99
70437;BME280;57877;39.750;-104.894;2023-05-21T12:29:58;84135.75;;;11.76;38.92
70437;BME280;57877;39.750;-104.894;2023-05-21T12:32:27;84138.90;;;12.34;38.38
70437;BME280;57877;39.750;-104.894;2023-05-21T12:34:49;84138.83;;;11.54;38.46